createdAt,value
2022-09-15T00:01:57.686Z,100.00
2022-09-15T00:04:24.159Z,100.00
2022-09-15T00:06:50.659Z,100.00
2022-09-15T00:09:17.128Z,100.00
2022-09-15T00:11:43.724Z,100.00
2022-09-15T00:14:10.243Z,100.00
2022-09-15T00:16:37.123Z,100.00
2022-09-15T00:19:04.350Z,100.00
2022-09-15T00:21:34.158Z,100.00
2022-09-15T00:24:03.045Z,100.00
2022-09-15T00:26:31.706Z,100.00
2022-09-15T00:28:59.747Z,100.00
2022-09-15T00:31:28.516Z,100.00
2022-09-15T00:33:57.147Z,100.00
2022-09-15T00:36:24.876Z,100.00
2022-09-15T00:38:51.691Z,100.00
2022-09-15T00:41:20.986Z,100.00
2022-09-15T00:43:55.181Z,100.00
2022-09-15T00:46:24.844Z,100.00
2022-09-15T00:48:57.588Z,100.00
2022-09-15T00:51:51.050Z,100.00
2022-09-15T00:54:22.624Z,100.00
2022-09-15T00:56:53.169Z,100.00
2022-09-15T00:59:24.363Z,100.00
2022-09-15T01:02:01.128Z,100.00
2022-09-15T01:04:27.683Z,100.00
2022-09-15T01:07:00.298Z,100.00
2022-09-15T01:09:36.363Z,100.00
2022-09-15T01:12:03.742Z,100.00
2022-09-15T01:14:30.236Z,100.00
2022-09-15T01:17:19.010Z,100.00
2022-09-15T01:20:04.082Z,100.00
2022-09-15T01:22:41.517Z,100.00
2022-09-15T01:26:05.050Z,100.00
2022-09-15T01:28:58.876Z,100.00
2022-09-15T01:32:05.070Z,100.00
2022-09-15T01:34:40.465Z,100.00
2022-09-15T01:37:15.334Z,100.00
2022-09-15T01:39:45.005Z,100.00
2022-09-15T01:42:15.338Z,100.00
2022-09-15T01:45:02.520Z,100.00
2022-09-15T01:47:30.344Z,100.00
2022-09-15T01:50:02.977Z,100.00
2022-09-15T01:52:30.708Z,100.00
2022-09-15T01:55:02.262Z,100.00
2022-09-15T01:57:28.853Z,100.00
2022-09-15T01:59:56.415Z,100.00
2022-09-15T02:02:33.343Z,100.00
2022-09-15T02:05:06.208Z,100.00
2022-09-15T02:07:35.459Z,100.00
2022-09-15T02:10:13.555Z,100.00
2022-09-15T02:12:54.578Z,100.00
2022-09-15T02:15:33.403Z,100.00
2022-09-15T02:18:02.608Z,100.00
2022-09-15T02:20:33.088Z,100.00
2022-09-15T02:23:08.452Z,100.00
2022-09-15T02:25:41.416Z,100.00
2022-09-15T02:28:11.624Z,100.00
2022-09-15T02:30:42.003Z,100.00
2022-09-15T02:33:14.090Z,100.00
2022-09-15T02:35:42.254Z,100.00
2022-09-15T02:38:10.597Z,100.00
2022-09-15T02:40:41.236Z,100.00
2022-09-15T02:43:12.408Z,100.00
2022-09-15T02:45:39.430Z,100.00
2022-09-15T02:48:06.309Z,100.00
2022-09-15T02:50:32.782Z,100.00
2022-09-15T02:52:59.270Z,100.00
2022-09-15T02:55:29.022Z,100.00
2022-09-15T02:57:59.265Z,100.00
2022-09-15T03:00:27.096Z,100.00
2022-09-15T03:02:54.814Z,100.00
2022-09-15T03:05:24.949Z,100.00
2022-09-15T03:07:52.199Z,100.00
2022-09-15T03:10:19.112Z,100.00
2022-09-15T03:12:48.354Z,100.00
2022-09-15T03:15:17.660Z,100.00
2022-09-15T03:17:46.320Z,100.00
2022-09-15T03:20:16.941Z,100.00
2022-09-15T03:22:43.964Z,100.00
2022-09-15T03:25:11.275Z,100.00
2022-09-15T03:27:38.370Z,100.00
2022-09-15T03:30:06.707Z,100.00
2022-09-15T03:32:33.257Z,100.00
2022-09-15T03:34:59.723Z,100.00
2022-09-15T03:37:26.652Z,100.00
2022-09-15T03:39:53.212Z,100.00
2022-09-15T03:42:20.345Z,100.00
2022-09-15T03:44:46.887Z,100.00
2022-09-15T03:47:13.501Z,100.00
2022-09-15T03:49:39.979Z,100.00
2022-09-15T03:52:06.429Z,100.00
2022-09-15T03:54:32.915Z,100.00
2022-09-15T03:56:59.462Z,100.00
2022-09-15T03:59:25.970Z,100.00
2022-09-15T04:01:52.665Z,100.00
2022-09-15T04:04:19.242Z,100.00
2022-09-15T04:06:45.771Z,100.00
2022-09-15T04:09:12.278Z,100.00
2022-09-15T04:11:39.647Z,100.00
2022-09-15T04:14:06.339Z,100.00
2022-09-15T04:16:33.804Z,100.00
2022-09-15T04:19:00.439Z,100.00
2022-09-15T04:21:26.975Z,100.00
2022-09-15T04:23:54.631Z,100.00
2022-09-15T04:26:34.169Z,100.00
2022-09-15T04:29:04.619Z,100.00
2022-09-15T04:31:32.151Z,100.00
2022-09-15T04:33:59.390Z,100.00
2022-09-15T04:36:28.250Z,100.00
2022-09-15T04:38:55.371Z,100.00
2022-09-15T04:41:22.533Z,100.00
2022-09-15T04:43:49.565Z,100.00
2022-09-15T04:46:16.906Z,100.00
2022-09-15T04:48:45.501Z,100.00
2022-09-15T04:51:14.896Z,100.00
2022-09-15T04:53:41.995Z,100.00
2022-09-15T04:56:11.987Z,100.00
2022-09-15T04:58:46.558Z,100.00
2022-09-15T05:01:15.971Z,100.00
2022-09-15T05:03:43.046Z,100.00
2022-09-15T05:06:12.331Z,100.00
2022-09-15T05:08:39.398Z,100.00
2022-09-15T05:11:09.019Z,100.00
2022-09-15T05:13:36.844Z,100.00
2022-09-15T05:16:05.885Z,100.00
2022-09-15T05:18:33.183Z,100.00
2022-09-15T05:21:00.957Z,100.00
2022-09-15T05:23:28.475Z,100.00
2022-09-15T05:25:59.340Z,100.00
2022-09-15T05:28:26.129Z,100.00
2022-09-15T05:30:54.281Z,100.00
2022-09-15T05:33:22.351Z,100.00
2022-09-15T05:35:52.193Z,100.00
2022-09-15T05:38:18.774Z,100.00
2022-09-15T05:40:45.488Z,100.00
2022-09-15T05:43:12.078Z,100.00
2022-09-15T05:45:38.532Z,100.00
2022-09-15T05:48:05.111Z,100.00
2022-09-15T05:50:31.825Z,100.00
2022-09-15T05:52:58.272Z,100.00
2022-09-15T05:55:24.821Z,100.00
2022-09-15T05:57:51.325Z,100.00
2022-09-15T06:00:19.003Z,100.00
2022-09-15T06:02:45.517Z,100.00
2022-09-15T06:05:12.175Z,100.00
2022-09-15T06:07:39.217Z,100.00
2022-09-15T06:10:06.526Z,100.00
2022-09-15T06:12:33.004Z,100.00
2022-09-15T06:14:59.821Z,100.00
2022-09-15T06:17:26.486Z,100.00
2022-09-15T06:19:53.119Z,100.00
2022-09-15T06:22:19.600Z,100.00
2022-09-15T06:24:46.151Z,100.00
2022-09-15T06:27:12.660Z,100.00
2022-09-15T06:29:39.139Z,100.00
2022-09-15T06:32:05.780Z,100.00
2022-09-15T06:34:32.891Z,100.00
2022-09-15T06:36:59.934Z,100.00
2022-09-15T06:39:27.179Z,100.00
2022-09-15T06:42:02.202Z,100.00
2022-09-15T06:44:29.788Z,100.00
2022-09-15T06:46:56.252Z,100.00
2022-09-15T06:49:22.950Z,100.00
2022-09-15T06:51:49.524Z,100.00
2022-09-15T06:54:16.224Z,100.00
2022-09-15T06:56:43.447Z,100.00
2022-09-15T06:59:15.345Z,100.00
2022-09-15T07:01:42.581Z,100.00
2022-09-15T07:04:09.987Z,100.00
2022-09-15T07:06:38.619Z,100.00
2022-09-15T07:09:06.006Z,100.00
2022-09-15T07:11:33.132Z,100.00
2022-09-15T07:13:59.650Z,100.00
2022-09-15T07:16:26.268Z,100.00
2022-09-15T07:18:56.057Z,100.00
2022-09-15T07:21:23.353Z,100.00
2022-09-15T07:23:50.406Z,100.00
2022-09-15T07:26:28.375Z,100.00
2022-09-15T07:28:57.349Z,100.00
2022-09-15T07:31:26.029Z,100.00
2022-09-15T07:33:53.242Z,100.00
2022-09-15T07:36:19.994Z,100.00
2022-09-15T07:38:48.730Z,100.00
2022-09-15T07:41:23.668Z,100.00
2022-09-15T07:43:52.236Z,100.00
2022-09-15T07:46:20.367Z,100.00
2022-09-15T07:48:48.301Z,100.00
2022-09-15T07:51:15.943Z,100.00
2022-09-15T07:53:43.907Z,100.00
2022-09-15T07:56:10.662Z,100.00
2022-09-15T07:58:37.107Z,100.00
2022-09-15T08:01:06.066Z,100.00
2022-09-15T08:03:32.921Z,100.00
2022-09-15T08:06:00.282Z,100.00
2022-09-15T08:08:26.952Z,100.00
2022-09-15T08:10:53.763Z,100.00
2022-09-15T08:13:20.383Z,100.00
2022-09-15T08:15:47.932Z,100.00
2022-09-15T08:18:15.407Z,100.00
2022-09-15T08:20:42.631Z,100.00
2022-09-15T08:23:11.063Z,100.00
2022-09-15T08:25:40.510Z,100.00
2022-09-15T08:28:07.157Z,100.00
2022-09-15T08:30:33.779Z,100.00
2022-09-15T08:33:00.238Z,100.00
2022-09-15T08:35:26.775Z,100.00
2022-09-15T08:37:55.022Z,100.00
2022-09-15T08:40:27.454Z,100.00
2022-09-15T08:42:57.980Z,100.00
2022-09-15T08:45:32.532Z,100.00
2022-09-15T08:48:03.305Z,100.00
2022-09-15T08:50:35.804Z,100.00
2022-09-15T08:53:11.911Z,100.00
2022-09-15T08:55:55.066Z,100.00
2022-09-15T08:58:37.663Z,100.00
2022-09-15T09:01:10.456Z,100.00
2022-09-15T09:03:49.336Z,100.00
2022-09-15T09:06:48.079Z,100.00
2022-09-15T09:09:27.895Z,100.00
2022-09-15T09:12:13.229Z,100.00
2022-09-15T09:15:07.317Z,100.00
2022-09-15T09:18:04.126Z,100.00
2022-09-15T09:20:52.657Z,100.00
2022-09-15T09:23:23.927Z,100.00
2022-09-15T09:25:52.158Z,100.00
2022-09-15T09:28:32.210Z,100.00
2022-09-15T09:31:08.295Z,100.00
2022-09-15T09:33:47.611Z,100.00
2022-09-15T09:36:14.698Z,100.00
2022-09-15T09:38:43.932Z,100.00
2022-09-15T09:41:17.122Z,100.00
2022-09-15T09:43:47.396Z,100.00
2022-09-15T09:46:16.649Z,100.00
2022-09-15T09:48:47.631Z,100.00
2022-09-15T09:51:32.037Z,100.00
2022-09-15T09:54:20.808Z,100.00
2022-09-15T09:56:53.633Z,100.00
2022-09-15T09:59:40.395Z,100.00
2022-09-15T10:02:18.917Z,100.00
2022-09-15T10:04:48.330Z,94.46
2022-09-15T10:07:18.615Z,95.17
2022-09-15T10:09:52.532Z,96.33
2022-09-15T10:12:39.748Z,97.79
2022-09-15T10:15:20.211Z,94.23
2022-09-15T10:17:49.607Z,95.19
2022-09-15T10:20:28.227Z,98.90
2022-09-15T10:23:19.089Z,94.40
2022-09-15T10:26:01.342Z,92.36
2022-09-15T10:28:28.626Z,83.66
2022-09-15T10:31:15.761Z,82.20
2022-09-15T10:33:47.701Z,78.63
2022-09-15T10:36:22.492Z,80.47
2022-09-15T10:38:54.723Z,75.45
2022-09-15T10:41:37.674Z,71.80
2022-09-15T10:44:38.311Z,69.77
2022-09-15T10:47:07.603Z,70.39
2022-09-15T10:49:52.100Z,69.19
2022-09-15T10:52:25.719Z,68.77
2022-09-15T10:55:15.620Z,66.43
2022-09-15T10:58:06.236Z,64.56
2022-09-15T11:01:11.327Z,62.85
2022-09-15T11:04:15.357Z,64.84
2022-09-15T11:06:50.501Z,67.50
2022-09-15T11:09:26.229Z,68.19
2022-09-15T11:12:04.966Z,61.08
2022-09-15T11:14:56.457Z,56.94
2022-09-15T11:17:42.505Z,57.96
2022-09-15T11:20:32.580Z,65.41
2022-09-15T11:23:11.511Z,65.74
2022-09-15T11:25:46.799Z,66.58
2022-09-15T11:28:32.980Z,62.25
2022-09-15T11:31:02.457Z,61.44
2022-09-15T11:33:45.210Z,59.23
2022-09-15T11:36:23.004Z,63.68
2022-09-15T11:39:13.170Z,68.66
2022-09-15T11:41:48.459Z,70.56
2022-09-15T11:44:16.638Z,66.61
2022-09-15T11:47:02.679Z,63.82
2022-09-15T11:49:44.944Z,66.31
2022-09-15T11:52:24.810Z,61.79
2022-09-15T11:55:02.727Z,64.53
2022-09-15T11:57:38.980Z,64.77
2022-09-15T12:00:13.177Z,65.77
2022-09-15T12:02:49.187Z,66.78
2022-09-15T12:05:22.218Z,64.34
2022-09-15T12:07:56.040Z,65.07
2022-09-15T12:10:39.869Z,64.52
2022-09-15T12:13:10.130Z,63.70
2022-09-15T12:15:37.746Z,64.21
2022-09-15T12:18:43.861Z,66.46
2022-09-15T12:21:19.693Z,65.06
2022-09-15T12:24:02.949Z,67.75
2022-09-15T12:26:33.139Z,68.48
2022-09-15T12:29:04.932Z,68.52
2022-09-15T12:31:31.477Z,69.61
2022-09-15T12:33:57.926Z,68.41
2022-09-15T12:36:51.316Z,71.55
2022-09-15T12:39:32.296Z,74.25
2022-09-15T12:42:10.935Z,74.27
2022-09-15T12:44:47.965Z,78.51
2022-09-15T12:47:29.641Z,80.37
2022-09-15T12:50:04.878Z,81.73
2022-09-15T12:52:31.979Z,82.07
2022-09-15T12:55:02.665Z,83.31
2022-09-15T12:57:33.529Z,83.15
2022-09-15T13:00:35.587Z,85.59
2022-09-15T13:03:03.927Z,87.20
2022-09-15T13:05:42.379Z,84.82
2022-09-15T13:08:24.818Z,83.48
2022-09-15T13:11:14.137Z,80.62
2022-09-15T13:14:14.857Z,82.27
2022-09-15T13:16:41.419Z,83.39
2022-09-15T13:19:24.183Z,87.26
2022-09-15T13:22:12.213Z,88.80
2022-09-15T13:25:01.504Z,88.03
2022-09-15T13:27:36.359Z,88.50
2022-09-15T13:30:24.342Z,86.00
2022-09-15T13:33:03.671Z,85.40
2022-09-15T13:35:56.511Z,80.58
2022-09-15T13:38:47.408Z,80.75
2022-09-15T13:42:04.537Z,80.06
2022-09-15T13:44:54.501Z,80.39
2022-09-15T13:47:38.262Z,79.58
2022-09-15T13:50:04.636Z,81.11
2022-09-15T13:52:58.044Z,78.51
2022-09-15T13:55:28.033Z,78.69
2022-09-15T14:00:55.036Z,77.22
2022-09-15T14:03:37.106Z,75.14
2022-09-15T14:06:22.340Z,73.87
2022-09-15T14:08:53.711Z,73.71
2022-09-15T14:11:30.727Z,75.29
2022-09-15T14:14:00.738Z,73.04
2022-09-15T14:16:27.914Z,74.43
2022-09-15T14:18:57.693Z,73.98
2022-09-15T14:21:29.507Z,73.61
2022-09-15T14:23:58.599Z,73.98
2022-09-15T14:26:29.086Z,74.25
2022-09-15T14:29:06.788Z,75.81
2022-09-15T14:31:39.065Z,77.57
2022-09-15T14:34:09.759Z,77.04
2022-09-15T14:36:36.322Z,73.59
2022-09-15T14:39:12.805Z,74.38
2022-09-15T14:41:40.192Z,73.75
2022-09-15T14:45:54.494Z,69.90
2022-09-15T14:47:20.816Z,72.04
2022-09-15T14:49:47.749Z,72.24
2022-09-15T14:52:31.890Z,68.38
2022-09-15T14:55:02.594Z,69.09
2022-09-15T14:57:32.206Z,70.81
2022-09-15T15:00:07.099Z,70.66
2022-09-15T15:02:33.597Z,71.49
2022-09-15T15:05:31.974Z,71.56
2022-09-15T15:08:03.980Z,75.05
2022-09-15T15:10:35.680Z,75.69
2022-09-15T15:13:07.990Z,76.49
2022-09-15T15:15:37.958Z,78.53
2022-09-15T15:18:39.047Z,78.34
2022-09-15T15:21:26.654Z,79.89
2022-09-15T15:23:53.875Z,80.11
2022-09-15T15:26:28.474Z,81.75
2022-09-15T15:28:54.999Z,82.52
2022-09-15T15:31:25.071Z,82.38
2022-09-15T15:33:59.296Z,82.84
2022-09-15T15:36:28.546Z,81.74
2022-09-15T15:39:00.876Z,83.28
2022-09-15T15:41:29.611Z,83.13
2022-09-15T15:44:03.509Z,83.97
2022-09-15T15:46:53.435Z,84.54
2022-09-15T15:49:25.325Z,82.91
2022-09-15T15:51:55.269Z,83.18
2022-09-15T15:54:22.865Z,82.85
2022-09-15T15:56:49.717Z,84.03
2022-09-15T15:59:17.377Z,84.76
2022-09-15T16:01:45.108Z,82.97
2022-09-15T16:04:12.222Z,82.17
2022-09-15T16:06:39.497Z,81.05
2022-09-15T16:09:06.185Z,80.70
2022-09-15T16:11:32.831Z,79.58
2022-09-15T16:13:59.718Z,77.96
2022-09-15T16:16:27.586Z,77.98
2022-09-15T16:18:54.521Z,79.13
2022-09-15T16:21:28.959Z,79.51
2022-09-15T16:23:55.521Z,81.39
2022-09-15T16:26:24.149Z,81.13
2022-09-15T16:28:51.453Z,82.36
2022-09-15T16:31:17.974Z,83.49
2022-09-15T16:33:44.461Z,82.57
2022-09-15T16:36:18.097Z,82.11
2022-09-15T16:38:45.114Z,82.21
2022-09-15T16:41:17.564Z,80.41
2022-09-15T16:43:45.509Z,82.12
2022-09-15T16:46:13.418Z,82.19
2022-09-15T16:48:42.691Z,82.52
2022-09-15T16:51:31.636Z,83.59
2022-09-15T16:54:01.247Z,83.85
2022-09-15T16:56:28.502Z,83.91
2022-09-15T16:59:00.133Z,84.85
2022-09-15T17:01:27.466Z,84.41
2022-09-15T17:03:54.152Z,86.43
2022-09-15T17:06:22.081Z,86.66
2022-09-15T17:08:48.975Z,87.56
2022-09-15T17:11:18.478Z,90.09
2022-09-15T17:13:47.158Z,91.10
2022-09-15T17:16:15.737Z,91.48
2022-09-15T17:18:42.296Z,91.48
2022-09-15T17:21:12.369Z,92.60
2022-09-15T17:23:45.792Z,91.42
2022-09-15T17:26:17.271Z,92.00
2022-09-15T17:28:43.724Z,91.68
2022-09-15T17:31:19.387Z,92.09
2022-09-15T17:33:47.137Z,91.68
2022-09-15T17:36:13.626Z,91.67
2022-09-15T17:38:41.153Z,90.91
2022-09-15T17:41:16.487Z,90.14
2022-09-15T17:43:43.056Z,90.16
2022-09-15T17:46:09.668Z,89.78
2022-09-15T17:48:39.215Z,89.25
2022-09-15T17:51:07.248Z,89.88
2022-09-15T17:53:34.201Z,90.26
2022-09-15T17:56:00.958Z,91.14
2022-09-15T17:58:29.944Z,92.55
2022-09-15T18:00:57.497Z,92.47
2022-09-15T18:03:27.966Z,92.57
2022-09-15T18:05:59.200Z,92.62
2022-09-15T18:08:26.791Z,93.57
2022-09-15T18:10:53.826Z,93.10
2022-09-15T18:13:23.473Z,93.59
2022-09-15T18:15:50.668Z,92.57
2022-09-15T18:18:20.016Z,91.43
2022-09-15T18:20:46.922Z,90.40
2022-09-15T18:23:15.588Z,89.43
2022-09-15T18:25:43.105Z,88.29
2022-09-15T18:28:10.576Z,88.45
2022-09-15T18:30:41.811Z,87.33
2022-09-15T18:33:14.043Z,86.90
2022-09-15T18:35:41.315Z,85.17
2022-09-15T18:38:08.316Z,86.13
2022-09-15T18:40:34.818Z,85.56
2022-09-15T18:43:09.045Z,86.46
2022-09-15T18:45:35.580Z,86.54
2022-09-15T18:48:11.956Z,85.56
2022-09-15T18:50:40.313Z,85.10
2022-09-15T18:53:09.817Z,84.86
2022-09-15T18:55:36.414Z,85.22
2022-09-15T18:58:02.970Z,85.09
2022-09-15T19:00:29.887Z,86.25
2022-09-15T19:03:00.762Z,86.19
2022-09-15T19:05:28.983Z,87.01
2022-09-15T19:07:55.635Z,87.60
2022-09-15T19:10:23.078Z,88.02
2022-09-15T19:12:49.615Z,88.73
2022-09-15T19:15:16.713Z,88.10
2022-09-15T19:17:44.022Z,87.82
2022-09-15T19:20:14.226Z,87.00
2022-09-15T19:22:41.698Z,87.74
2022-09-15T19:25:09.745Z,88.19
2022-09-15T19:27:37.953Z,86.73
2022-09-15T19:30:05.649Z,86.69
2022-09-15T19:32:33.478Z,88.27
2022-09-15T19:35:00.009Z,87.05
2022-09-15T19:37:26.639Z,87.81
2022-09-15T19:39:53.408Z,87.41
2022-09-15T19:42:20.100Z,88.72
2022-09-15T19:44:47.918Z,88.45
2022-09-15T19:47:14.816Z,88.09
2022-09-15T19:49:41.315Z,90.00
2022-09-15T19:52:07.940Z,88.46
2022-09-15T19:54:34.662Z,87.75
2022-09-15T19:57:01.842Z,87.18
2022-09-15T19:59:31.396Z,87.25
2022-09-15T20:01:58.694Z,86.43
2022-09-15T20:07:09.243Z,87.92
2022-09-15T20:09:36.345Z,88.76
2022-09-15T20:12:03.430Z,88.18
2022-09-15T20:14:31.398Z,88.34
2022-09-15T20:17:00.972Z,87.98
2022-09-15T20:19:28.112Z,87.85
2022-09-15T20:21:54.598Z,87.12
2022-09-15T20:24:21.635Z,86.91
2022-09-15T20:26:48.457Z,86.14
2022-09-15T20:29:15.757Z,86.28
2022-09-15T20:31:42.547Z,85.16
2022-09-15T20:34:09.336Z,85.44
2022-09-15T20:36:38.813Z,86.13
2022-09-15T20:39:09.293Z,85.06
2022-09-15T20:41:36.063Z,84.26
2022-09-15T20:44:02.955Z,84.80
2022-09-15T20:46:31.254Z,83.82
2022-09-15T20:48:57.754Z,84.86
2022-09-15T20:51:26.780Z,84.90
2022-09-15T20:53:55.502Z,86.34
2022-09-15T20:56:25.487Z,86.80
2022-09-15T20:58:57.152Z,85.00
2022-09-15T21:01:43.577Z,85.03
2022-09-15T21:04:10.639Z,85.94
2022-09-15T21:06:37.353Z,85.36
2022-09-15T21:09:05.306Z,84.95
2022-09-15T21:11:31.881Z,83.51
2022-09-15T21:13:58.871Z,83.00
2022-09-15T21:16:27.498Z,82.28
2022-09-15T21:18:55.418Z,82.87
2022-09-15T21:21:29.839Z,83.35
2022-09-15T21:24:01.787Z,83.48
2022-09-15T21:26:30.466Z,83.83
2022-09-15T21:28:57.542Z,84.16
2022-09-15T21:31:26.242Z,83.77
2022-09-15T21:33:54.138Z,84.31
2022-09-15T21:36:23.235Z,85.65
2022-09-15T21:38:51.853Z,85.21
2022-09-15T21:41:22.950Z,85.33
2022-09-15T21:43:54.957Z,85.44
2022-09-15T21:46:24.352Z,85.99
2022-09-15T21:48:50.881Z,85.96
2022-09-15T21:51:23.535Z,85.56
2022-09-15T21:53:52.241Z,85.03
2022-09-15T21:56:19.059Z,85.29
2022-09-15T21:58:45.622Z,85.70
2022-09-15T22:01:23.723Z,86.78
2022-09-15T22:03:52.980Z,86.99
2022-09-15T22:06:21.569Z,87.73
2022-09-15T22:08:48.778Z,88.84
2022-09-15T22:11:15.326Z,89.02
2022-09-15T22:13:44.611Z,88.93
2022-09-15T22:16:14.346Z,90.96
2022-09-15T22:18:41.874Z,89.94
2022-09-15T22:21:11.326Z,89.21
2022-09-15T22:23:38.703Z,89.56
2022-09-15T22:26:08.095Z,88.97
2022-09-15T22:28:34.987Z,88.46
2022-09-15T22:31:04.615Z,88.48
2022-09-15T22:33:31.456Z,88.17
2022-09-15T22:35:58.692Z,88.37
2022-09-15T22:38:27.266Z,88.01
2022-09-15T22:40:53.786Z,87.66
2022-09-15T22:43:20.306Z,86.98
2022-09-15T22:45:47.036Z,86.31
2022-09-15T22:48:13.709Z,86.57
2022-09-15T22:50:40.199Z,86.29
2022-09-15T22:53:06.733Z,86.22
2022-09-15T22:55:33.224Z,86.38
2022-09-15T22:57:59.701Z,86.65
2022-09-15T23:00:27.137Z,86.82
2022-09-15T23:02:53.990Z,86.77
2022-09-15T23:05:20.512Z,87.21
2022-09-15T23:07:47.110Z,86.78
2022-09-15T23:10:13.588Z,86.57
2022-09-15T23:12:40.038Z,85.13
2022-09-15T23:15:07.752Z,85.02
2022-09-15T23:17:34.505Z,84.45
2022-09-15T23:20:01.440Z,84.52
2022-09-15T23:22:27.972Z,83.87
2022-09-15T23:24:54.425Z,83.28
2022-09-15T23:27:20.963Z,83.12
2022-09-15T23:29:47.538Z,83.21
2022-09-15T23:32:14.055Z,82.70
2022-09-15T23:34:40.518Z,82.95
2022-09-15T23:37:07.044Z,83.81
2022-09-15T23:39:33.531Z,84.38
2022-09-15T23:42:01.326Z,84.46
2022-09-15T23:44:27.812Z,85.08
2022-09-15T23:46:54.341Z,84.53
2022-09-15T23:49:20.884Z,85.11
2022-09-15T23:51:47.381Z,84.60
2022-09-15T23:54:14.025Z,84.72
2022-09-15T23:56:40.948Z,84.21
2022-09-15T23:59:07.455Z,83.12
